sensor_id;sensor_type;location;lat;lon;timestamp;P1;durP1;ratioP1;P2;durP2;ratioP2
18503;SDS011;9381;54.244;10.074;2023-06-14T00:03:54;10.10;;;7.20;;
18503;SDS011;9381;54.244;10.074;2023-06-14T00:08:56;17.23;;;7.40;;
18503;SDS011;9381;54.244;10.074;2023-06-14T00:13:56;11.70;;;6.33;;
18503;SDS011;9381;54.244;10.074;2023-06-14T00:18:57;10.93;;;6.43;;
18503;SDS011;9381;54.244;10.074;2023-06-14T00:23:57;13.77;;;6.10;;
18503;SDS011;9381;54.244;10.074;2023-06-14T00:28:59;9.60;;;6.53;;
18503;SDS011;9381;54.244;10.074;2023-06-14T00:33:59;15.70;;;7.13;;
18503;SDS011;9381;54.244;10.074;2023-06-14T00:39:00;12.20;;;7.30;;
18503;SDS011;9381;54.244;10.074;2023-06-14T00:44:00;10.60;;;6.87;;
18503;SDS011;9381;54.244;10.074;2023-06-14T00:49:01;9.77;;;6.67;;
18503;SDS011;9381;54.244;10.074;2023-06-14T00:54:02;11.73;;;7.23;;
18503;SDS011;9381;54.244;10.074;2023-06-14T00:59:03;14.00;;;7.57;;
18503;SDS011;9381;54.244;10.074;2023-06-14T01:04:04;16.50;;;8.20;;
18503;SDS011;9381;54.244;10.074;2023-06-14T01:09:18;13.90;;;8.23;;
18503;SDS011;9381;54.244;10.074;2023-06-14T01:14:28;13.23;;;8.00;;
18503;SDS011;9381;54.244;10.074;2023-06-14T01:19:31;14.60;;;7.70;;
18503;SDS011;9381;54.244;10.074;2023-06-14T01:24:34;15.97;;;8.57;;
18503;SDS011;9381;54.244;10.074;2023-06-14T01:29:34;14.13;;;9.63;;
18503;SDS011;9381;54.244;10.074;2023-06-14T01:34:36;14.13;;;8.17;;
18503;SDS011;9381;54.244;10.074;2023-06-14T01:39:36;17.25;;;8.48;;
18503;SDS011;9381;54.244;10.074;2023-06-14T01:44:37;13.73;;;8.60;;
18503;SDS011;9381;54.244;10.074;2023-06-14T01:49:38;15.00;;;8.73;;
18503;SDS011;9381;54.244;10.074;2023-06-14T01:54:38;13.17;;;8.37;;
18503;SDS011;9381;54.244;10.074;2023-06-14T01:59:42;11.40;;;8.23;;
18503;SDS011;9381;54.244;10.074;2023-06-14T02:04:43;11.33;;;7.67;;
18503;SDS011;9381;54.244;10.074;2023-06-14T02:09:43;12.33;;;9.00;;
18503;SDS011;9381;54.244;10.074;2023-06-14T02:14:43;13.33;;;7.80;;
18503;SDS011;9381;54.244;10.074;2023-06-14T02:19:44;10.67;;;7.53;;
18503;SDS011;9381;54.244;10.074;2023-06-14T02:24:45;13.57;;;7.43;;
18503;SDS011;9381;54.244;10.074;2023-06-14T02:29:45;14.00;;;8.27;;
18503;SDS011;9381;54.244;10.074;2023-06-14T02:34:45;12.95;;;8.40;;
18503;SDS011;9381;54.244;10.074;2023-06-14T02:39:49;11.57;;;7.97;;
18503;SDS011;9381;54.244;10.074;2023-06-14T02:44:50;13.23;;;7.35;;
18503;SDS011;9381;54.244;10.074;2023-06-14T02:49:51;12.73;;;7.00;;
18503;SDS011;9381;54.244;10.074;2023-06-14T02:54:51;9.83;;;6.87;;
18503;SDS011;9381;54.244;10.074;2023-06-14T02:59:52;13.73;;;7.23;;
18503;SDS011;9381;54.244;10.074;2023-06-14T03:04:52;12.00;;;6.70;;
18503;SDS011;9381;54.244;10.074;2023-06-14T03:09:53;15.67;;;7.47;;
18503;SDS011;9381;54.244;10.074;2023-06-14T03:14:53;10.00;;;6.43;;
18503;SDS011;9381;54.244;10.074;2023-06-14T03:19:56;10.33;;;6.87;;
18503;SDS011;9381;54.244;10.074;2023-06-14T03:24:57;8.37;;;6.60;;
18503;SDS011;9381;54.244;10.074;2023-06-14T03:29:59;10.03;;;6.60;;
18503;SDS011;9381;54.244;10.074;2023-06-14T03:35:00;12.10;;;7.27;;
18503;SDS011;9381;54.244;10.074;2023-06-14T03:40:00;10.23;;;6.33;;
18503;SDS011;9381;54.244;10.074;2023-06-14T03:45:00;12.40;;;6.87;;
18503;SDS011;9381;54.244;10.074;2023-06-14T03:50:02;10.02;;;6.28;;
18503;SDS011;9381;54.244;10.074;2023-06-14T03:55:03;10.47;;;6.40;;
18503;SDS011;9381;54.244;10.074;2023-06-14T04:00:04;9.47;;;6.17;;
18503;SDS011;9381;54.244;10.074;2023-06-14T04:05:06;7.97;;;6.07;;
18503;SDS011;9381;54.244;10.074;2023-06-14T04:10:08;13.73;;;7.03;;
18503;SDS011;9381;54.244;10.074;2023-06-14T04:15:09;13.33;;;7.73;;
18503;SDS011;9381;54.244;10.074;2023-06-14T04:20:10;11.20;;;7.83;;
18503;SDS011;9381;54.244;10.074;2023-06-14T04:25:11;11.10;;;7.03;;
18503;SDS011;9381;54.244;10.074;2023-06-14T04:30:12;10.00;;;7.13;;
18503;SDS011;9381;54.244;10.074;2023-06-14T04:35:15;10.77;;;7.87;;
18503;SDS011;9381;54.244;10.074;2023-06-14T04:40:17;19.80;;;8.83;;
18503;SDS011;9381;54.244;10.074;2023-06-14T04:45:17;15.63;;;8.37;;
18503;SDS011;9381;54.244;10.074;2023-06-14T04:50:18;14.83;;;7.60;;
18503;SDS011;9381;54.244;10.074;2023-06-14T04:55:20;13.57;;;7.60;;
18503;SDS011;9381;54.244;10.074;2023-06-14T05:00:20;11.97;;;7.33;;
18503;SDS011;9381;54.244;10.074;2023-06-14T05:05:21;13.30;;;6.90;;
18503;SDS011;9381;54.244;10.074;2023-06-14T05:10:21;12.07;;;7.60;;
18503;SDS011;9381;54.244;10.074;2023-06-14T05:15:22;14.35;;;7.90;;
18503;SDS011;9381;54.244;10.074;2023-06-14T05:20:25;18.47;;;6.87;;
18503;SDS011;9381;54.244;10.074;2023-06-14T05:25:26;14.17;;;6.60;;
18503;SDS011;9381;54.244;10.074;2023-06-14T05:30:28;10.33;;;6.63;;
18503;SDS011;9381;54.244;10.074;2023-06-14T05:35:30;14.07;;;6.00;;
18503;SDS011;9381;54.244;10.074;2023-06-14T05:40:30;8.40;;;5.43;;
18503;SDS011;9381;54.244;10.074;2023-06-14T05:45:31;13.13;;;5.68;;
18503;SDS011;9381;54.244;10.074;2023-06-14T05:50:31;10.93;;;5.37;;
18503;SDS011;9381;54.244;10.074;2023-06-14T05:55:31;10.80;;;4.95;;
18503;SDS011;9381;54.244;10.074;2023-06-14T06:00:32;8.77;;;5.63;;
18503;SDS011;9381;54.244;10.074;2023-06-14T06:05:32;13.17;;;5.83;;
18503;SDS011;9381;54.244;10.074;2023-06-14T06:10:32;8.32;;;4.78;;
18503;SDS011;9381;54.244;10.074;2023-06-14T06:15:33;11.20;;;4.63;;
18503;SDS011;9381;54.244;10.074;2023-06-14T06:20:33;6.03;;;4.53;;
18503;SDS011;9381;54.244;10.074;2023-06-14T06:25:34;7.80;;;4.93;;
18503;SDS011;9381;54.244;10.074;2023-06-14T06:30:34;11.87;;;4.77;;
18503;SDS011;9381;54.244;10.074;2023-06-14T06:35:36;8.90;;;4.70;;
18503;SDS011;9381;54.244;10.074;2023-06-14T06:40:37;11.27;;;4.50;;
18503;SDS011;9381;54.244;10.074;2023-06-14T06:45:37;7.20;;;5.00;;
18503;SDS011;9381;54.244;10.074;2023-06-14T06:50:37;13.67;;;4.50;;
18503;SDS011;9381;54.244;10.074;2023-06-14T06:55:38;8.70;;;4.63;;
18503;SDS011;9381;54.244;10.074;2023-06-14T07:00:38;8.80;;;4.67;;
18503;SDS011;9381;54.244;10.074;2023-06-14T07:05:38;7.25;;;4.00;;
18503;SDS011;9381;54.244;10.074;2023-06-14T07:10:39;8.70;;;4.03;;
18503;SDS011;9381;54.244;10.074;2023-06-14T07:15:40;10.60;;;4.43;;
18503;SDS011;9381;54.244;10.074;2023-06-14T07:20:40;7.93;;;4.60;;
18503;SDS011;9381;54.244;10.074;2023-06-14T07:25:41;10.77;;;3.80;;
18503;SDS011;9381;54.244;10.074;2023-06-14T07:30:41;8.52;;;3.83;;
18503;SDS011;9381;54.244;10.074;2023-06-14T07:35:42;7.47;;;3.90;;
18503;SDS011;9381;54.244;10.074;2023-06-14T07:40:42;6.03;;;3.43;;
18503;SDS011;9381;54.244;10.074;2023-06-14T07:45:42;6.07;;;3.67;;
18503;SDS011;9381;54.244;10.074;2023-06-14T07:50:43;7.07;;;3.95;;
18503;SDS011;9381;54.244;10.074;2023-06-14T07:55:43;6.37;;;3.53;;
18503;SDS011;9381;54.244;10.074;2023-06-14T08:00:44;8.00;;;3.70;;
18503;SDS011;9381;54.244;10.074;2023-06-14T08:05:44;8.40;;;5.60;;
18503;SDS011;9381;54.244;10.074;2023-06-14T08:10:45;6.47;;;3.40;;
18503;SDS011;9381;54.244;10.074;2023-06-14T08:15:45;5.38;;;3.50;;
18503;SDS011;9381;54.244;10.074;2023-06-14T08:20:45;7.07;;;3.77;;
18503;SDS011;9381;54.244;10.074;2023-06-14T08:25:46;7.13;;;3.03;;
18503;SDS011;9381;54.244;10.074;2023-06-14T08:30:47;5.10;;;3.60;;
18503;SDS011;9381;54.244;10.074;2023-06-14T08:35:47;7.03;;;3.37;;
18503;SDS011;9381;54.244;10.074;2023-06-14T08:40:48;7.20;;;3.07;;
18503;SDS011;9381;54.244;10.074;2023-06-14T08:45:53;6.90;;;3.50;;
18503;SDS011;9381;54.244;10.074;2023-06-14T08:51:00;8.40;;;3.53;;
18503;SDS011;9381;54.244;10.074;2023-06-14T08:56:04;4.47;;;2.77;;
18503;SDS011;9381;54.244;10.074;2023-06-14T09:01:05;7.93;;;3.43;;
18503;SDS011;9381;54.244;10.074;2023-06-14T09:06:08;8.70;;;3.77;;
18503;SDS011;9381;54.244;10.074;2023-06-14T09:11:13;5.70;;;3.30;;
18503;SDS011;9381;54.244;10.074;2023-06-14T09:16:15;5.60;;;3.10;;
18503;SDS011;9381;54.244;10.074;2023-06-14T09:21:16;6.03;;;3.30;;
18503;SDS011;9381;54.244;10.074;2023-06-14T09:26:17;8.77;;;3.20;;
18503;SDS011;9381;54.244;10.074;2023-06-14T09:31:23;7.47;;;3.37;;
18503;SDS011;9381;54.244;10.074;2023-06-14T09:36:24;6.23;;;3.40;;
18503;SDS011;9381;54.244;10.074;2023-06-14T09:41:32;6.40;;;3.63;;
18503;SDS011;9381;54.244;10.074;2023-06-14T09:46:36;6.53;;;3.60;;
18503;SDS011;9381;54.244;10.074;2023-06-14T09:51:42;10.13;;;3.87;;
18503;SDS011;9381;54.244;10.074;2023-06-14T09:56:45;3.80;;;3.00;;
18503;SDS011;9381;54.244;10.074;2023-06-14T10:01:47;4.60;;;2.67;;
18503;SDS011;9381;54.244;10.074;2023-06-14T10:06:48;5.23;;;3.10;;
18503;SDS011;9381;54.244;10.074;2023-06-14T10:11:50;6.33;;;3.27;;
18503;SDS011;9381;54.244;10.074;2023-06-14T10:16:52;8.63;;;3.70;;
18503;SDS011;9381;54.244;10.074;2023-06-14T10:27:25;8.03;;;2.97;;
18503;SDS011;9381;54.244;10.074;2023-06-14T10:32:25;5.83;;;3.30;;
18503;SDS011;9381;54.244;10.074;2023-06-14T10:37:28;7.47;;;3.07;;
18503;SDS011;9381;54.244;10.074;2023-06-14T10:42:31;4.83;;;2.63;;
18503;SDS011;9381;54.244;10.074;2023-06-14T10:47:32;5.60;;;2.90;;
18503;SDS011;9381;54.244;10.074;2023-06-14T10:52:38;5.93;;;2.93;;
18503;SDS011;9381;54.244;10.074;2023-06-14T10:57:45;7.63;;;2.90;;
18503;SDS011;9381;54.244;10.074;2023-06-14T11:02:49;4.60;;;2.90;;
18503;SDS011;9381;54.244;10.074;2023-06-14T11:13:25;7.70;;;3.10;;
18503;SDS011;9381;54.244;10.074;2023-06-14T11:18:26;5.73;;;3.00;;
18503;SDS011;9381;54.244;10.074;2023-06-14T11:23:28;7.83;;;2.80;;
18503;SDS011;9381;54.244;10.074;2023-06-14T11:28:36;6.73;;;3.03;;
18503;SDS011;9381;54.244;10.074;2023-06-14T11:33:40;4.20;;;2.93;;
18503;SDS011;9381;54.244;10.074;2023-06-14T11:38:41;6.23;;;3.03;;
18503;SDS011;9381;54.244;10.074;2023-06-14T11:43:41;6.27;;;3.23;;
18503;SDS011;9381;54.244;10.074;2023-06-14T11:48:42;8.27;;;2.90;;
18503;SDS011;9381;54.244;10.074;2023-06-14T11:53:43;6.43;;;2.60;;
18503;SDS011;9381;54.244;10.074;2023-06-14T11:58:43;6.63;;;3.20;;
18503;SDS011;9381;54.244;10.074;2023-06-14T12:03:48;6.13;;;2.77;;
18503;SDS011;9381;54.244;10.074;2023-06-14T12:08:49;4.33;;;2.47;;
18503;SDS011;9381;54.244;10.074;2023-06-14T12:13:50;6.10;;;3.03;;
18503;SDS011;9381;54.244;10.074;2023-06-14T12:18:50;4.87;;;2.60;;
18503;SDS011;9381;54.244;10.074;2023-06-14T12:23:53;6.97;;;3.30;;
18503;SDS011;9381;54.244;10.074;2023-06-14T12:28:53;4.17;;;2.70;;
18503;SDS011;9381;54.244;10.074;2023-06-14T12:33:54;4.57;;;2.80;;
18503;SDS011;9381;54.244;10.074;2023-06-14T12:38:54;6.40;;;3.10;;
18503;SDS011;9381;54.244;10.074;2023-06-14T12:43:54;4.17;;;3.10;;
18503;SDS011;9381;54.244;10.074;2023-06-14T12:48:55;8.03;;;3.17;;
18503;SDS011;9381;54.244;10.074;2023-06-14T12:53:55;7.70;;;3.40;;
18503;SDS011;9381;54.244;10.074;2023-06-14T12:58:56;3.63;;;3.07;;
18503;SDS011;9381;54.244;10.074;2023-06-14T13:03:56;4.67;;;2.83;;
18503;SDS011;9381;54.244;10.074;2023-06-14T13:08:57;6.78;;;3.33;;
18503;SDS011;9381;54.244;10.074;2023-06-14T13:13:58;10.67;;;3.40;;
18503;SDS011;9381;54.244;10.074;2023-06-14T13:18:59;6.30;;;3.13;;
18503;SDS011;9381;54.244;10.074;2023-06-14T13:23:59;4.20;;;3.07;;
18503;SDS011;9381;54.244;10.074;2023-06-14T13:29:00;7.00;;;3.30;;
18503;SDS011;9381;54.244;10.074;2023-06-14T13:34:00;7.67;;;3.70;;
18503;SDS011;9381;54.244;10.074;2023-06-14T13:39:01;10.20;;;3.70;;
18503;SDS011;9381;54.244;10.074;2023-06-14T13:44:01;5.97;;;3.10;;
18503;SDS011;9381;54.244;10.074;2023-06-14T13:49:04;5.37;;;3.20;;
18503;SDS011;9381;54.244;10.074;2023-06-14T13:54:05;4.73;;;2.83;;
18503;SDS011;9381;54.244;10.074;2023-06-14T13:59:06;6.47;;;3.17;;
18503;SDS011;9381;54.244;10.074;2023-06-14T14:04:06;6.33;;;3.23;;
18503;SDS011;9381;54.244;10.074;2023-06-14T14:09:07;4.67;;;2.90;;
18503;SDS011;9381;54.244;10.074;2023-06-14T14:14:08;7.90;;;3.30;;
18503;SDS011;9381;54.244;10.074;2023-06-14T14:19:10;7.20;;;3.60;;
18503;SDS011;9381;54.244;10.074;2023-06-14T14:24:10;7.60;;;3.43;;
18503;SDS011;9381;54.244;10.074;2023-06-14T14:29:10;5.80;;;3.57;;
18503;SDS011;9381;54.244;10.074;2023-06-14T14:34:12;13.57;;;3.60;;
18503;SDS011;9381;54.244;10.074;2023-06-14T14:39:12;5.87;;;3.50;;
18503;SDS011;9381;54.244;10.074;2023-06-14T14:44:12;4.17;;;3.40;;
18503;SDS011;9381;54.244;10.074;2023-06-14T14:49:13;6.30;;;3.20;;
18503;SDS011;9381;54.244;10.074;2023-06-14T14:54:13;4.70;;;3.60;;
18503;SDS011;9381;54.244;10.074;2023-06-14T14:59:13;6.83;;;3.53;;
18503;SDS011;9381;54.244;10.074;2023-06-14T15:04:14;7.53;;;4.13;;
18503;SDS011;9381;54.244;10.074;2023-06-14T15:09:14;4.47;;;3.50;;
18503;SDS011;9381;54.244;10.074;2023-06-14T15:14:15;6.43;;;3.70;;
18503;SDS011;9381;54.244;10.074;2023-06-14T15:19:17;10.57;;;3.93;;
18503;SDS011;9381;54.244;10.074;2023-06-14T15:24:18;7.73;;;3.50;;
18503;SDS011;9381;54.244;10.074;2023-06-14T15:29:18;7.93;;;3.70;;
18503;SDS011;9381;54.244;10.074;2023-06-14T15:34:19;5.47;;;3.80;;
18503;SDS011;9381;54.244;10.074;2023-06-14T15:39:20;6.97;;;3.83;;
18503;SDS011;9381;54.244;10.074;2023-06-14T15:44:20;5.97;;;3.60;;
18503;SDS011;9381;54.244;10.074;2023-06-14T15:49:21;6.23;;;4.10;;
18503;SDS011;9381;54.244;10.074;2023-06-14T15:54:21;7.87;;;3.40;;
18503;SDS011;9381;54.244;10.074;2023-06-14T15:59:21;11.23;;;3.90;;
18503;SDS011;9381;54.244;10.074;2023-06-14T16:04:21;8.10;;;3.70;;
18503;SDS011;9381;54.244;10.074;2023-06-14T16:09:22;5.60;;;3.43;;
18503;SDS011;9381;54.244;10.074;2023-06-14T16:14:23;8.17;;;3.27;;
18503;SDS011;9381;54.244;10.074;2023-06-14T16:19:23;9.33;;;3.73;;
18503;SDS011;9381;54.244;10.074;2023-06-14T16:24:23;7.93;;;4.10;;
18503;SDS011;9381;54.244;10.074;2023-06-14T16:29:24;6.00;;;3.70;;
18503;SDS011;9381;54.244;10.074;2023-06-14T16:34:24;4.77;;;3.80;;
18503;SDS011;9381;54.244;10.074;2023-06-14T16:39:25;10.63;;;4.13;;
18503;SDS011;9381;54.244;10.074;2023-06-14T16:44:25;7.55;;;3.38;;
18503;SDS011;9381;54.244;10.074;2023-06-14T16:49:26;6.50;;;3.30;;
18503;SDS011;9381;54.244;10.074;2023-06-14T16:54:26;7.90;;;3.40;;
18503;SDS011;9381;54.244;10.074;2023-06-14T16:59:27;8.63;;;3.47;;
18503;SDS011;9381;54.244;10.074;2023-06-14T17:04:27;8.47;;;3.57;;
18503;SDS011;9381;54.244;10.074;2023-06-14T17:09:27;9.80;;;4.27;;
18503;SDS011;9381;54.244;10.074;2023-06-14T17:14:28;5.87;;;3.50;;
18503;SDS011;9381;54.244;10.074;2023-06-14T17:19:28;4.50;;;3.40;;
18503;SDS011;9381;54.244;10.074;2023-06-14T17:24:28;9.13;;;3.50;;
18503;SDS011;9381;54.244;10.074;2023-06-14T17:29:29;5.37;;;2.97;;
18503;SDS011;9381;54.244;10.074;2023-06-14T17:34:29;4.83;;;3.30;;
18503;SDS011;9381;54.244;10.074;2023-06-14T17:39:30;6.67;;;3.47;;
18503;SDS011;9381;54.244;10.074;2023-06-14T17:44:30;6.73;;;3.50;;
18503;SDS011;9381;54.244;10.074;2023-06-14T17:49:30;8.57;;;3.87;;
18503;SDS011;9381;54.244;10.074;2023-06-14T17:54:31;6.80;;;3.30;;
18503;SDS011;9381;54.244;10.074;2023-06-14T17:59:31;7.70;;;3.80;;
18503;SDS011;9381;54.244;10.074;2023-06-14T18:04:32;6.57;;;3.73;;
18503;SDS011;9381;54.244;10.074;2023-06-14T18:09:33;13.27;;;3.60;;
18503;SDS011;9381;54.244;10.074;2023-06-14T18:14:33;5.03;;;3.30;;
18503;SDS011;9381;54.244;10.074;2023-06-14T18:19:34;4.50;;;3.10;;
18503;SDS011;9381;54.244;10.074;2023-06-14T18:24:36;7.37;;;3.27;;
18503;SDS011;9381;54.244;10.074;2023-06-14T18:29:37;8.63;;;3.50;;
18503;SDS011;9381;54.244;10.074;2023-06-14T18:34:37;7.80;;;3.80;;
18503;SDS011;9381;54.244;10.074;2023-06-14T18:39:37;7.63;;;3.50;;
18503;SDS011;9381;54.244;10.074;2023-06-14T18:44:38;6.00;;;3.27;;
18503;SDS011;9381;54.244;10.074;2023-06-14T18:49:39;4.17;;;3.17;;
18503;SDS011;9381;54.244;10.074;2023-06-14T18:54:40;6.73;;;3.67;;
18503;SDS011;9381;54.244;10.074;2023-06-14T18:59:40;5.00;;;3.20;;
18503;SDS011;9381;54.244;10.074;2023-06-14T19:04:40;8.20;;;3.20;;
18503;SDS011;9381;54.244;10.074;2023-06-14T19:09:41;7.50;;;3.30;;
18503;SDS011;9381;54.244;10.074;2023-06-14T19:14:41;5.10;;;2.90;;
18503;SDS011;9381;54.244;10.074;2023-06-14T19:19:41;3.93;;;2.80;;
18503;SDS011;9381;54.244;10.074;2023-06-14T19:24:44;5.30;;;2.97;;
18503;SDS011;9381;54.244;10.074;2023-06-14T19:29:44;5.40;;;3.23;;
18503;SDS011;9381;54.244;10.074;2023-06-14T19:34:44;4.97;;;3.20;;
18503;SDS011;9381;54.244;10.074;2023-06-14T19:39:45;5.87;;;3.20;;
18503;SDS011;9381;54.244;10.074;2023-06-14T19:44:45;4.50;;;3.22;;
18503;SDS011;9381;54.244;10.074;2023-06-14T19:49:46;5.00;;;3.33;;
18503;SDS011;9381;54.244;10.074;2023-06-14T19:54:46;3.10;;;2.80;;
18503;SDS011;9381;54.244;10.074;2023-06-14T19:59:47;7.13;;;3.50;;
18503;SDS011;9381;54.244;10.074;2023-06-14T20:04:47;6.80;;;3.47;;
18503;SDS011;9381;54.244;10.074;2023-06-14T20:09:47;6.27;;;3.07;;
18503;SDS011;9381;54.244;10.074;2023-06-14T20:14:48;4.93;;;3.00;;
18503;SDS011;9381;54.244;10.074;2023-06-14T20:19:50;7.07;;;3.30;;
18503;SDS011;9381;54.244;10.074;2023-06-14T20:24:50;6.13;;;3.23;;
18503;SDS011;9381;54.244;10.074;2023-06-14T20:29:51;6.53;;;2.90;;
18503;SDS011;9381;54.244;10.074;2023-06-14T20:34:53;7.27;;;3.47;;
18503;SDS011;9381;54.244;10.074;2023-06-14T20:39:54;6.20;;;3.33;;
18503;SDS011;9381;54.244;10.074;2023-06-14T20:45:05;6.97;;;3.80;;
18503;SDS011;9381;54.244;10.074;2023-06-14T20:50:06;4.93;;;3.50;;
18503;SDS011;9381;54.244;10.074;2023-06-14T20:55:08;5.43;;;3.50;;
18503;SDS011;9381;54.244;10.074;2023-06-14T21:00:09;4.97;;;3.40;;
18503;SDS011;9381;54.244;10.074;2023-06-14T21:05:13;5.97;;;3.37;;
18503;SDS011;9381;54.244;10.074;2023-06-14T21:10:13;5.13;;;3.60;;
18503;SDS011;9381;54.244;10.074;2023-06-14T21:15:14;5.67;;;3.27;;
18503;SDS011;9381;54.244;10.074;2023-06-14T21:20:15;5.37;;;3.20;;
18503;SDS011;9381;54.244;10.074;2023-06-14T21:25:15;5.50;;;3.53;;
18503;SDS011;9381;54.244;10.074;2023-06-14T21:30:16;5.50;;;3.53;;
18503;SDS011;9381;54.244;10.074;2023-06-14T21:35:16;6.13;;;3.50;;
18503;SDS011;9381;54.244;10.074;2023-06-14T21:40:17;8.63;;;3.93;;
18503;SDS011;9381;54.244;10.074;2023-06-14T21:45:18;5.90;;;3.40;;
18503;SDS011;9381;54.244;10.074;2023-06-14T21:50:18;6.40;;;3.90;;
18503;SDS011;9381;54.244;10.074;2023-06-14T21:55:18;5.67;;;3.43;;
18503;SDS011;9381;54.244;10.074;2023-06-14T22:00:23;6.80;;;4.00;;
18503;SDS011;9381;54.244;10.074;2023-06-14T22:05:24;7.43;;;3.93;;
18503;SDS011;9381;54.244;10.074;2023-06-14T22:10:25;8.13;;;3.77;;
18503;SDS011;9381;54.244;10.074;2023-06-14T22:15:26;4.33;;;3.60;;
18503;SDS011;9381;54.244;10.074;2023-06-14T22:20:27;5.97;;;4.07;;
18503;SDS011;9381;54.244;10.074;2023-06-14T22:25:29;4.87;;;4.03;;
18503;SDS011;9381;54.244;10.074;2023-06-14T22:30:30;5.23;;;3.93;;
18503;SDS011;9381;54.244;10.074;2023-06-14T22:35:32;12.53;;;4.43;;
18503;SDS011;9381;54.244;10.074;2023-06-14T22:40:33;4.37;;;3.97;;
18503;SDS011;9381;54.244;10.074;2023-06-14T22:45:33;8.37;;;4.37;;
18503;SDS011;9381;54.244;10.074;2023-06-14T22:50:36;5.10;;;4.07;;
18503;SDS011;9381;54.244;10.074;2023-06-14T22:55:37;6.77;;;3.77;;
18503;SDS011;9381;54.244;10.074;2023-06-14T23:00:37;6.57;;;4.78;;
18503;SDS011;9381;54.244;10.074;2023-06-14T23:05:38;6.43;;;4.00;;
18503;SDS011;9381;54.244;10.074;2023-06-14T23:10:41;4.93;;;4.23;;
18503;SDS011;9381;54.244;10.074;2023-06-14T23:15:42;7.53;;;4.47;;
18503;SDS011;9381;54.244;10.074;2023-06-14T23:20:42;6.63;;;4.33;;
18503;SDS011;9381;54.244;10.074;2023-06-14T23:25:43;4.57;;;4.07;;
18503;SDS011;9381;54.244;10.074;2023-06-14T23:30:43;8.05;;;4.63;;
18503;SDS011;9381;54.244;10.074;2023-06-14T23:35:45;6.83;;;4.40;;
18503;SDS011;9381;54.244;10.074;2023-06-14T23:40:46;7.47;;;5.07;;
18503;SDS011;9381;54.244;10.074;2023-06-14T23:45:49;7.27;;;5.27;;
18503;SDS011;9381;54.244;10.074;2023-06-14T23:50:53;6.97;;;5.63;;
18503;SDS011;9381;54.244;10.074;2023-06-14T23:55:54;7.80;;;5.20;;
